createdAt,value
2019-05-11T00:02:08.996Z,99.90
2019-05-11T00:04:39.487Z,99.90
2019-05-11T00:07:15.710Z,99.90
2019-05-11T00:09:57.603Z,99.90
2019-05-11T00:12:17.235Z,99.90
2019-05-11T00:14:46.931Z,99.90
2019-05-11T00:17:16.665Z,99.90
2019-05-11T00:19:46.760Z,99.90
2019-05-11T00:22:16.475Z,99.90
2019-05-11T00:24:46.469Z,99.90
2019-05-11T00:27:16.196Z,99.90
2019-05-11T00:29:46.188Z,99.90
2019-05-11T00:32:15.968Z,99.90
2019-05-11T00:34:45.859Z,99.90
2019-05-11T00:37:15.809Z,99.90
2019-05-11T00:39:45.644Z,99.90
2019-05-11T00:42:15.351Z,99.90
2019-05-11T00:44:47.248Z,99.90
2019-05-11T00:47:16.771Z,99.90
2019-05-11T00:49:46.751Z,99.90
2019-05-11T00:52:18.096Z,99.90
2019-05-11T00:54:48.005Z,99.90
2019-05-11T00:57:17.984Z,99.90
2019-05-11T00:59:47.881Z,99.90
2019-05-11T01:02:17.870Z,99.90
2019-05-11T01:04:47.568Z,99.90
2019-05-11T01:07:17.923Z,99.90
2019-05-11T01:09:47.954Z,99.90
2019-05-11T01:12:18.567Z,99.90
2019-05-11T01:14:48.553Z,99.90
2019-05-11T01:17:18.894Z,99.90
2019-05-11T01:19:49.346Z,99.90
2019-05-11T01:22:19.746Z,99.90
2019-05-11T01:24:49.967Z,99.90
2019-05-11T01:27:20.099Z,99.90
2019-05-11T01:29:50.483Z,99.90
2019-05-11T01:32:20.536Z,99.90
2019-05-11T01:34:50.508Z,99.90
2019-05-11T01:37:20.569Z,99.90
2019-05-11T01:39:50.443Z,99.90
2019-05-11T01:42:20.148Z,99.90
2019-05-11T01:44:49.957Z,99.90
2019-05-11T01:47:19.668Z,99.90
2019-05-11T01:49:49.691Z,99.90
2019-05-11T01:52:19.811Z,99.90
2019-05-11T01:54:49.930Z,99.90
2019-05-11T01:57:19.842Z,99.90
2019-05-11T01:59:49.851Z,99.90
2019-05-11T02:02:20.019Z,99.90
2019-05-11T02:04:52.708Z,99.90
2019-05-11T02:07:23.043Z,99.90
2019-05-11T02:09:52.966Z,99.90
2019-05-11T02:12:22.773Z,99.90
2019-05-11T02:14:52.595Z,99.90
2019-05-11T02:17:22.692Z,99.90
2019-05-11T02:19:52.387Z,99.90
2019-05-11T02:22:22.719Z,99.90
2019-05-11T02:24:52.740Z,99.90
2019-05-11T02:27:22.775Z,99.90
2019-05-11T02:29:52.612Z,99.90
2019-05-11T02:32:22.572Z,99.90
2019-05-11T02:34:52.529Z,99.90
2019-05-11T02:37:22.402Z,99.90
2019-05-11T02:39:52.270Z,99.90
2019-05-11T02:42:22.541Z,99.90
2019-05-11T02:44:52.681Z,99.90
2019-05-11T02:47:22.477Z,99.90
2019-05-11T02:49:53.029Z,99.90
2019-05-11T02:52:24.217Z,99.90
2019-05-11T02:54:56.125Z,99.90
2019-05-11T02:57:25.769Z,99.90
2019-05-11T02:59:55.854Z,99.90
2019-05-11T03:02:25.677Z,99.90
2019-05-11T03:04:55.722Z,99.90
2019-05-11T03:07:25.357Z,99.90
2019-05-11T03:09:55.333Z,99.90
2019-05-11T03:12:25.302Z,99.90
2019-05-11T03:14:55.348Z,99.90
2019-05-11T03:17:29.913Z,99.90
2019-05-11T03:20:00.101Z,99.90
2019-05-11T03:22:29.989Z,99.90
2019-05-11T03:25:00.049Z,99.90
2019-05-11T03:27:29.930Z,99.90
2019-05-11T03:30:01.419Z,99.90
2019-05-11T03:32:31.804Z,99.90
2019-05-11T03:35:01.663Z,99.90
2019-05-11T03:37:32.045Z,99.90
2019-05-11T03:40:02.339Z,99.90
2019-05-11T03:42:32.376Z,99.90
2019-05-11T03:45:02.437Z,99.90
2019-05-11T03:47:34.645Z,99.90
2019-05-11T03:50:04.505Z,99.90
2019-05-11T03:52:34.371Z,99.90
2019-05-11T03:55:04.485Z,99.90
2019-05-11T03:57:34.322Z,99.90
2019-05-11T04:00:04.733Z,99.90
2019-05-11T04:02:35.283Z,99.90
2019-05-11T04:05:05.437Z,99.90
2019-05-11T04:07:35.429Z,99.90
2019-05-11T04:10:05.548Z,99.90
2019-05-11T04:12:35.819Z,99.90
2019-05-11T04:15:06.132Z,99.90
2019-05-11T04:17:36.077Z,99.90
2019-05-11T04:20:06.561Z,99.90
2019-05-11T04:22:36.309Z,99.90
2019-05-11T04:25:07.888Z,99.90
2019-05-11T04:27:37.790Z,99.90
2019-05-11T04:30:08.143Z,99.90
2019-05-11T04:32:38.524Z,99.90
2019-05-11T04:35:08.533Z,99.90
2019-05-11T04:37:38.575Z,99.90
2019-05-11T04:40:09.293Z,99.90
2019-05-11T04:42:54.310Z,99.90
2019-05-11T04:45:11.722Z,99.90
2019-05-11T04:47:42.131Z,99.90
2019-05-11T04:50:12.902Z,99.90
2019-05-11T04:52:43.915Z,99.90
2019-05-11T04:55:14.221Z,99.90
2019-05-11T04:57:44.022Z,99.90
2019-05-11T05:01:47.185Z,99.90
2019-05-11T05:04:17.182Z,99.90
2019-05-11T05:06:58.968Z,99.90
2019-05-11T05:09:18.484Z,99.90
2019-05-11T05:11:48.421Z,99.90
2019-05-11T05:14:18.269Z,99.90
2019-05-11T05:16:48.041Z,99.90
2019-05-11T05:19:18.001Z,99.90
2019-05-11T05:21:47.975Z,99.90
2019-05-11T05:24:17.673Z,99.90
2019-05-11T05:26:47.700Z,99.90
2019-05-11T05:29:17.385Z,99.90
2019-05-11T05:31:47.423Z,99.90
2019-05-11T05:34:17.087Z,99.90
2019-05-11T05:36:48.687Z,99.90
2019-05-11T05:39:18.605Z,99.90
2019-05-11T05:41:56.591Z,99.90
2019-05-11T05:44:21.312Z,99.90
2019-05-11T05:46:53.087Z,99.90
2019-05-11T05:49:24.775Z,99.90
2019-05-11T05:51:58.192Z,99.90
2019-05-11T05:54:26.439Z,99.90
2019-05-11T05:56:58.076Z,99.90
2019-05-11T05:59:28.076Z,99.90
2019-05-11T06:01:57.740Z,99.90
2019-05-11T06:04:27.976Z,99.90
2019-05-11T06:06:58.036Z,99.90
2019-05-11T06:09:28.215Z,99.90
2019-05-11T06:11:57.932Z,99.90
2019-05-11T06:14:28.136Z,99.90
2019-05-11T06:16:58.099Z,99.90
2019-05-11T06:19:28.315Z,99.90
2019-05-11T06:21:58.242Z,99.90
2019-05-11T06:24:28.203Z,99.90
2019-05-11T06:26:58.164Z,99.90
2019-05-11T06:29:29.816Z,99.90
2019-05-11T06:32:00.049Z,99.90
2019-05-11T06:34:30.027Z,99.90
2019-05-11T06:37:00.943Z,99.90
2019-05-11T06:39:30.604Z,99.90
2019-05-11T06:42:00.440Z,99.90
2019-05-11T06:44:30.245Z,99.90
2019-05-11T06:47:00.343Z,99.90
2019-05-11T06:49:30.388Z,99.90
2019-05-11T06:52:00.415Z,99.90
2019-05-11T06:54:31.632Z,99.90
2019-05-11T06:57:01.856Z,99.90
2019-05-11T06:59:31.624Z,99.90
2019-05-11T07:02:01.777Z,99.90
2019-05-11T07:04:31.648Z,99.90
2019-05-11T07:07:01.709Z,99.90
2019-05-11T07:09:31.894Z,99.90
2019-05-11T07:12:01.990Z,99.90
2019-05-11T07:14:32.123Z,99.90
2019-05-11T07:17:03.204Z,99.90
2019-05-11T07:19:34.408Z,99.90
2019-05-11T07:22:04.112Z,99.90
2019-05-11T07:24:34.896Z,99.90
2019-05-11T07:27:04.581Z,99.90
2019-05-11T07:29:35.080Z,99.90
2019-05-11T07:32:15.319Z,99.90
2019-05-11T07:34:38.375Z,99.90
2019-05-11T07:37:09.544Z,99.90
2019-05-11T07:39:39.624Z,99.90
2019-05-11T07:42:09.934Z,99.90
2019-05-11T07:44:41.908Z,99.90
2019-05-11T07:47:11.908Z,99.90
2019-05-11T07:49:41.542Z,99.90
2019-05-11T07:52:11.431Z,99.90
2019-05-11T07:54:41.522Z,99.90
2019-05-11T07:57:11.576Z,99.90
2019-05-11T07:59:41.640Z,99.90
2019-05-11T08:02:12.731Z,99.90
2019-05-11T08:04:42.680Z,99.90
2019-05-11T08:07:12.377Z,99.90
2019-05-11T08:09:42.019Z,99.90
2019-05-11T08:12:11.712Z,99.90
2019-05-11T08:14:56.722Z,99.90
2019-05-11T08:17:14.782Z,99.90
2019-05-11T08:19:45.056Z,99.90
2019-05-11T08:22:14.827Z,99.90
2019-05-11T08:24:44.871Z,99.90
2019-05-11T08:27:14.824Z,99.90
2019-05-11T08:29:44.619Z,99.90
2019-05-11T08:32:14.369Z,99.90
2019-05-11T08:34:44.224Z,99.90
2019-05-11T08:37:13.903Z,99.90
2019-05-11T08:39:43.553Z,99.90
2019-05-11T08:42:13.427Z,99.90
2019-05-11T08:44:43.080Z,99.90
2019-05-11T08:47:12.759Z,99.90
2019-05-11T08:49:42.408Z,99.90
2019-05-11T08:52:12.123Z,99.90
2019-05-11T08:54:42.320Z,99.90
2019-05-11T08:57:12.008Z,99.90
2019-05-11T08:59:41.660Z,99.90
2019-05-11T09:02:11.384Z,99.90
2019-05-11T09:04:42.116Z,99.90
2019-05-11T09:07:11.848Z,99.90
2019-05-11T09:09:41.530Z,99.90
2019-05-11T09:12:11.266Z,99.90
2019-05-11T09:14:40.932Z,99.90
2019-05-11T09:17:10.623Z,99.90
2019-05-11T09:19:40.973Z,99.90
2019-05-11T09:22:10.650Z,99.90
2019-05-11T09:24:40.311Z,99.90
2019-05-11T09:27:10.008Z,99.90
2019-05-11T09:29:39.802Z,99.90
2019-05-11T09:32:09.503Z,99.90
2019-05-11T09:37:08.640Z,99.90
2019-05-11T09:39:38.688Z,99.90
2019-05-11T09:42:08.507Z,99.90
2019-05-11T09:44:38.194Z,99.90
2019-05-11T09:47:08.517Z,99.90
2019-05-11T09:49:47.163Z,99.90
2019-05-11T09:52:09.535Z,99.90
2019-05-11T09:54:40.746Z,99.90
2019-05-11T09:57:11.052Z,99.90
2019-05-11T09:59:40.888Z,99.90
2019-05-11T10:02:10.573Z,99.90
2019-05-11T10:04:40.247Z,99.90
2019-05-11T10:07:10.041Z,99.90
2019-05-11T10:09:39.859Z,99.90
2019-05-11T10:12:09.545Z,99.90
2019-05-11T10:14:39.192Z,99.90
2019-05-11T10:17:09.376Z,99.90
2019-05-11T10:19:39.646Z,99.90
2019-05-11T10:22:10.291Z,99.90
2019-05-11T10:24:40.617Z,99.90
2019-05-11T10:27:10.843Z,99.90
2019-05-11T10:29:40.923Z,99.90
2019-05-11T10:32:11.459Z,99.90
2019-05-11T10:34:41.523Z,99.90
2019-05-11T10:37:11.853Z,99.90
2019-05-11T10:39:41.941Z,99.90
2019-05-11T10:42:12.078Z,99.90
2019-05-11T10:44:42.150Z,99.90
2019-05-11T10:47:12.401Z,99.90
2019-05-11T10:49:42.499Z,99.90
2019-05-11T10:52:12.647Z,99.90
2019-05-11T10:54:42.737Z,99.90
2019-05-11T10:57:13.346Z,99.90
2019-05-11T10:59:43.800Z,99.90
2019-05-11T11:02:14.293Z,99.90
2019-05-11T11:04:44.570Z,99.90
2019-05-11T11:07:17.209Z,99.90
2019-05-11T11:09:49.100Z,99.90
2019-05-11T11:12:18.982Z,99.90
2019-05-11T11:14:49.041Z,99.90
2019-05-11T11:17:19.291Z,99.90
2019-05-11T11:19:49.086Z,99.90
2019-05-11T11:22:35.804Z,99.90
2019-05-11T11:24:50.035Z,99.90
2019-05-11T11:27:19.848Z,99.90
2019-05-11T11:29:49.532Z,99.90
2019-05-11T11:32:19.275Z,99.90
2019-05-11T11:34:48.951Z,99.90
2019-05-11T11:37:18.592Z,99.90
2019-05-11T11:39:48.579Z,99.90
2019-05-11T11:42:19.004Z,99.90
2019-05-11T11:44:48.655Z,99.90
2019-05-11T11:47:21.406Z,99.90
2019-05-11T11:49:49.632Z,99.90
2019-05-11T11:52:19.317Z,99.90
2019-05-11T11:54:49.031Z,99.90
2019-05-11T11:57:18.692Z,99.90
2019-05-11T11:59:48.404Z,99.90
2019-05-11T12:02:19.158Z,99.90
2019-05-11T12:04:48.925Z,99.90
2019-05-11T12:07:18.719Z,99.90
2019-05-11T12:09:48.618Z,99.90
2019-05-11T12:12:18.750Z,99.90
2019-05-11T12:14:48.416Z,99.90
2019-05-11T12:17:18.298Z,99.90
2019-05-11T12:19:48.079Z,99.90
2019-05-11T12:22:18.860Z,99.90
2019-05-11T12:24:48.543Z,99.90
2019-05-11T12:27:18.381Z,99.90
2019-05-11T12:29:48.184Z,99.90
2019-05-11T12:32:27.660Z,99.90
2019-05-11T12:34:58.771Z,99.90
2019-05-11T12:37:28.512Z,99.90
2019-05-11T12:39:58.297Z,99.90
2019-05-11T12:42:28.380Z,99.90
2019-05-11T12:44:58.140Z,99.90
2019-05-11T12:47:28.326Z,99.90
2019-05-11T12:49:58.634Z,99.90
2019-05-11T12:52:28.621Z,99.90
2019-05-11T12:54:58.393Z,99.90
2019-05-11T12:57:28.294Z,99.90
2019-05-11T12:59:58.346Z,99.90
2019-05-11T13:02:28.433Z,99.90
2019-05-11T13:04:58.535Z,99.90
2019-05-11T13:07:28.574Z,99.90
2019-05-11T13:09:58.385Z,99.90
2019-05-11T13:12:28.338Z,99.90
2019-05-11T13:14:58.576Z,99.90
2019-05-11T13:17:37.050Z,99.90
2019-05-11T13:20:00.184Z,99.90
2019-05-11T13:22:29.957Z,99.90
2019-05-11T13:24:59.996Z,99.90
2019-05-11T13:27:29.762Z,99.90
2019-05-11T13:29:59.632Z,99.90
2019-05-11T13:32:29.802Z,99.90
2019-05-11T13:34:59.872Z,99.90
2019-05-11T13:37:29.532Z,99.90
2019-05-11T13:39:59.480Z,99.90
2019-05-11T13:42:29.580Z,99.90
2019-05-11T13:44:59.620Z,99.90
2019-05-11T13:47:29.511Z,99.90
2019-05-11T13:49:59.459Z,99.90
2019-05-11T13:52:29.540Z,99.90
2019-05-11T13:54:59.598Z,99.90
2019-05-11T13:57:29.588Z,99.90
2019-05-11T13:59:59.530Z,99.90
2019-05-11T14:02:29.671Z,99.90
2019-05-11T14:04:59.655Z,99.90
2019-05-11T14:07:29.652Z,99.90
2019-05-11T14:09:59.690Z,99.90
2019-05-11T14:12:29.477Z,99.90
2019-05-11T14:14:59.399Z,99.90
2019-05-11T14:17:31.777Z,99.90
2019-05-11T14:20:00.495Z,99.90
2019-05-11T14:22:30.563Z,99.90
2019-05-11T14:25:00.417Z,99.90
2019-05-11T14:27:30.389Z,99.90
2019-05-11T14:30:03.771Z,99.90
2019-05-11T14:32:31.853Z,99.90
2019-05-11T14:35:01.713Z,99.70
2019-05-11T14:37:31.976Z,99.90
2019-05-11T14:40:02.074Z,99.90
2019-05-11T14:42:32.343Z,99.90
2019-05-11T14:45:02.717Z,99.90
2019-05-11T14:47:32.579Z,99.90
2019-05-11T14:50:02.984Z,99.90
2019-05-11T14:52:33.311Z,99.90
2019-05-11T14:55:03.257Z,99.90
2019-05-11T14:57:33.255Z,99.90
2019-05-11T15:00:04.035Z,99.90
2019-05-11T15:02:48.650Z,99.90
2019-05-11T15:05:19.005Z,99.90
2019-05-11T15:07:52.374Z,99.90
2019-05-11T15:10:23.834Z,99.90
2019-05-11T15:12:53.516Z,99.90
2019-05-11T15:15:23.671Z,99.90
2019-05-11T15:17:53.870Z,99.90
2019-05-11T15:20:25.529Z,99.90
2019-05-11T15:22:55.523Z,99.90
2019-05-11T15:25:25.371Z,98.00
2019-05-11T15:27:55.141Z,99.20
2019-05-11T15:30:25.185Z,95.30
2019-05-11T15:32:55.279Z,96.20
2019-05-11T15:35:25.150Z,95.70
2019-05-11T15:37:54.911Z,95.10
2019-05-11T15:40:24.929Z,99.60
2019-05-11T15:42:54.613Z,98.50
2019-05-11T15:45:24.449Z,95.60
2019-05-11T15:47:54.247Z,94.90
2019-05-11T15:50:24.358Z,99.00
2019-05-11T15:52:54.505Z,98.30
2019-05-11T15:55:24.582Z,98.50
2019-05-11T15:57:54.844Z,95.50
2019-05-11T16:00:24.851Z,99.60
2019-05-11T16:02:55.029Z,94.30
2019-05-11T16:05:25.728Z,96.40
2019-05-11T16:08:01.369Z,98.40
2019-05-11T16:10:29.446Z,96.30
2019-05-11T16:12:59.475Z,95.80
2019-05-11T16:15:30.021Z,94.40
2019-05-11T16:18:00.038Z,96.40
2019-05-11T16:20:29.799Z,95.00
2019-05-11T16:22:59.648Z,96.00
2019-05-11T16:25:29.460Z,98.50
2019-05-11T16:27:59.281Z,98.60
2019-05-11T16:30:29.343Z,93.30
2019-05-11T16:32:59.265Z,93.80
2019-05-11T16:35:28.888Z,92.00
2019-05-11T16:37:59.361Z,93.10
2019-05-11T16:40:29.676Z,93.60
2019-05-11T16:42:59.704Z,95.20
2019-05-11T16:45:29.559Z,92.60
2019-05-11T16:47:59.930Z,93.50
2019-05-11T16:50:30.365Z,94.30
2019-05-11T16:53:00.323Z,91.10
2019-05-11T16:55:30.555Z,95.90
2019-05-11T16:58:00.536Z,95.00
2019-05-11T17:00:31.476Z,88.20
2019-05-11T17:03:01.203Z,91.40
2019-05-11T17:05:33.847Z,91.30
2019-05-11T17:08:02.947Z,89.90
2019-05-11T17:10:33.004Z,93.30
2019-05-11T17:13:02.680Z,93.10
2019-05-11T17:15:32.632Z,88.90
2019-05-11T17:18:02.488Z,90.10
2019-05-11T17:20:32.104Z,95.50
2019-05-11T17:23:02.709Z,90.50
2019-05-11T17:25:32.695Z,89.20
2019-05-11T17:28:02.828Z,89.70
2019-05-11T17:30:32.727Z,87.50
2019-05-11T17:33:02.538Z,90.00
2019-05-11T17:35:32.460Z,88.90
2019-05-11T17:38:02.276Z,90.50
2019-05-11T17:40:32.383Z,95.10
2019-05-11T17:43:02.189Z,88.90
2019-05-11T17:45:32.205Z,93.30
2019-05-11T17:48:02.368Z,90.70
2019-05-11T17:50:32.137Z,91.10
2019-05-11T17:53:02.605Z,92.70
2019-05-11T17:55:32.480Z,92.00
2019-05-11T17:58:02.531Z,89.80
2019-05-11T18:00:32.296Z,94.50
2019-05-11T18:03:02.348Z,91.00
2019-05-11T18:05:32.534Z,92.50
2019-05-11T18:08:02.702Z,93.10
2019-05-11T18:10:32.331Z,93.80
2019-05-11T18:13:04.261Z,93.90
2019-05-11T18:15:34.147Z,94.60
2019-05-11T18:18:04.008Z,95.70
2019-05-11T18:20:38.039Z,92.10
2019-05-11T18:23:08.604Z,92.50
2019-05-11T18:25:39.099Z,93.70
2019-05-11T18:28:09.403Z,95.00
2019-05-11T18:30:39.376Z,94.60
2019-05-11T18:33:09.451Z,94.20
2019-05-11T18:35:39.636Z,93.70
2019-05-11T18:38:09.276Z,94.20
2019-05-11T18:40:39.163Z,93.20
2019-05-11T18:43:08.814Z,93.90
2019-05-11T18:45:38.887Z,92.70
2019-05-11T18:48:08.910Z,96.40
2019-05-11T18:50:38.824Z,93.30
2019-05-11T18:53:09.136Z,95.70
2019-05-11T18:55:39.481Z,96.30
2019-05-11T18:58:09.135Z,93.60
2019-05-11T19:00:38.997Z,96.10
2019-05-11T19:03:09.192Z,96.30
2019-05-11T19:05:39.321Z,98.00
2019-05-11T19:08:09.363Z,96.80
2019-05-11T19:10:39.371Z,95.20
2019-05-11T19:13:09.357Z,94.60
2019-05-11T19:15:39.286Z,95.20
2019-05-11T19:18:09.496Z,95.20
2019-05-11T19:20:45.716Z,96.50
2019-05-11T19:23:13.507Z,94.80
2019-05-11T19:25:43.228Z,95.80
2019-05-11T19:28:13.131Z,96.30
2019-05-11T19:30:43.298Z,95.30
2019-05-11T19:33:13.542Z,95.20
2019-05-11T19:35:43.536Z,97.20
2019-05-11T19:38:13.820Z,95.90
2019-05-11T19:40:44.169Z,97.30
2019-05-11T19:43:14.056Z,98.70
2019-05-11T19:45:43.791Z,96.60
2019-05-11T19:48:13.849Z,97.10
2019-05-11T19:50:43.556Z,97.30
2019-05-11T19:53:13.472Z,96.50
2019-05-11T19:55:43.156Z,96.90
2019-05-11T19:58:12.802Z,98.60
2019-05-11T20:00:42.468Z,97.90
2019-05-11T20:03:12.146Z,96.50
2019-05-11T20:05:41.820Z,96.40
2019-05-11T20:08:11.552Z,97.70
2019-05-11T20:10:41.432Z,97.80
2019-05-11T20:13:11.099Z,97.60
2019-05-11T20:15:41.018Z,99.80
2019-05-11T20:18:10.817Z,98.00
2019-05-11T20:20:40.495Z,98.90
2019-05-11T20:23:10.121Z,98.50
2019-05-11T20:25:39.788Z,98.70
2019-05-11T20:28:09.420Z,99.90
2019-05-11T20:30:39.437Z,99.90
2019-05-11T20:33:09.132Z,97.70
2019-05-11T20:35:39.316Z,97.10
2019-05-11T20:38:08.957Z,99.00
2019-05-11T20:40:39.241Z,99.60
2019-05-11T20:43:08.896Z,99.90
2019-05-11T20:45:38.871Z,99.90
2019-05-11T20:48:08.500Z,99.10
2019-05-11T20:50:38.233Z,97.70
2019-05-11T20:53:08.611Z,99.90
2019-05-11T20:55:38.747Z,99.90
2019-05-11T20:58:08.764Z,99.90
2019-05-11T21:00:38.756Z,99.90
2019-05-11T21:03:08.393Z,99.90
2019-05-11T21:05:38.091Z,99.90
2019-05-11T21:08:08.547Z,99.30
2019-05-11T21:10:38.741Z,99.30
2019-05-11T21:13:08.703Z,99.90
2019-05-11T21:15:38.677Z,99.90
2019-05-11T21:18:08.392Z,99.90
2019-05-11T21:20:38.295Z,99.90
2019-05-11T21:23:08.352Z,99.90
2019-05-11T21:25:38.080Z,99.90
2019-05-11T21:28:08.649Z,99.90
2019-05-11T21:30:40.025Z,99.90
2019-05-11T21:33:09.937Z,99.90
2019-05-11T21:35:39.613Z,99.90
2019-05-11T21:38:09.888Z,99.90
2019-05-11T21:40:39.552Z,99.90
2019-05-11T21:43:09.304Z,99.90
2019-05-11T21:45:40.749Z,99.90
2019-05-11T21:48:10.264Z,99.90
2019-05-11T21:50:39.964Z,99.90
2019-05-11T21:53:10.566Z,99.90
2019-05-11T21:55:40.556Z,99.90
2019-05-11T21:58:10.184Z,99.90
2019-05-11T22:00:40.472Z,99.90
2019-05-11T22:03:10.484Z,99.90
2019-05-11T22:05:40.170Z,99.90
2019-05-11T22:08:09.844Z,99.90
2019-05-11T22:10:39.564Z,99.90
2019-05-11T22:13:09.312Z,99.90
2019-05-11T22:15:38.990Z,99.90
2019-05-11T22:18:08.927Z,99.90
2019-05-11T22:20:41.024Z,99.90
2019-05-11T22:23:10.994Z,99.90
2019-05-11T22:25:40.730Z,99.90
2019-05-11T22:28:12.197Z,99.90
2019-05-11T22:30:42.004Z,99.90
2019-05-11T22:33:11.889Z,99.90
2019-05-11T22:35:41.836Z,99.90
2019-05-11T22:38:11.859Z,99.90
2019-05-11T22:40:41.538Z,99.90
2019-05-11T22:43:12.123Z,99.90
2019-05-11T22:45:42.275Z,99.90
2019-05-11T22:48:12.347Z,99.90
2019-05-11T22:50:43.758Z,99.90
2019-05-11T22:53:15.477Z,99.90
2019-05-11T22:55:45.450Z,99.90
2019-05-11T22:58:17.765Z,99.90
2019-05-11T23:00:46.902Z,99.90
2019-05-11T23:03:18.861Z,99.90
2019-05-11T23:05:48.738Z,99.90
2019-05-11T23:08:18.440Z,99.90
2019-05-11T23:10:48.288Z,99.90
2019-05-11T23:13:18.727Z,99.90
2019-05-11T23:15:48.615Z,99.90
2019-05-11T23:18:18.477Z,99.90
2019-05-11T23:20:48.352Z,99.90
2019-05-11T23:23:18.264Z,99.90
2019-05-11T23:25:47.967Z,99.90
2019-05-11T23:28:18.436Z,99.90
2019-05-11T23:30:48.299Z,99.90
2019-05-11T23:33:18.485Z,99.90
2019-05-11T23:35:48.617Z,99.90
2019-05-11T23:38:18.408Z,99.90
2019-05-11T23:40:48.229Z,99.90
2019-05-11T23:43:19.146Z,99.90
2019-05-11T23:45:49.557Z,99.90
2019-05-11T23:48:19.504Z,99.90
2019-05-11T23:50:49.160Z,99.90
2019-05-11T23:53:19.212Z,99.90
2019-05-11T23:55:48.988Z,99.90
2019-05-11T23:58:19.501Z,99.90
